This is the latest recevied weather packets stored in our database for station/object VK5TRM-13. If no packets are shown the sender has not sent any weather packets the latest 10 day(s).
| Time | Temp. | Humidity | Pressure | Rain* | Wind** | Luminosity | Snow |
|---|---|---|---|---|---|---|---|
| 1777734904 | 15.56° C | 90% | 1011.7 hPa | 4.32 mm | - | - | - |
| 1777734004 | 15.56° C | 87% | 1011.7 hPa | 4.32 mm | - | - | - |
| 1777733104 | 15.56° C | 87% | 1011.7 hPa | 4.32 mm | - | - | - |
| 1777732204 | 16.11° C | 88% | 1011.7 hPa | 4.32 mm | - | - | - |
| 1777731305 | 16.11° C | 88% | 1011.7 hPa | 4.32 mm | - | - | - |
| 1777730405 | 16.11° C | 88% | 1012.1 hPa | 4.32 mm | - | - | - |
| 1777729505 | 16.11° C | 88% | 1012.1 hPa | 4.32 mm | - | - | - |
| 1777728605 | 16.11° C | 87% | 1012.3 hPa | 4.32 mm | - | - | - |
| 1777727705 | 16.11° C | 87% | 1012.3 hPa | 4.32 mm | - | - | - |
| 1777726805 | 17.22° C | 93% | 1011.8 hPa | 4.32 mm | - | - | - |
| 1777725905 | 17.22° C | 93% | 1011.8 hPa | 4.32 mm | - | - | - |
| 1777725005 | 17.22° C | 93% | 1011.6 hPa | 4.06 mm | - | - | - |
| 1777724105 | 17.22° C | 93% | 1011.6 hPa | 4.06 mm | - | - | - |
| 1777723204 | 17.22° C | 92% | 1011.9 hPa | 4.06 mm | - | - | - |
| 1777722306 | 17.22° C | 92% | 1011.9 hPa | 4.06 mm | - | - | - |
| 1777721404 | 17.22° C | 93% | 1011.5 hPa | 3.81 mm | - | - | - |
| 1777720505 | 17.22° C | 93% | 1011.5 hPa | 3.81 mm | - | - | - |
| 1777719604 | 17.22° C | 91% | 1011.4 hPa | 3.81 mm | - | - | - |
| 1777718704 | 17.22° C | 91% | 1011.4 hPa | 3.81 mm | - | - | - |
| 1777717804 | 17.22° C | 90% | 1011.6 hPa | 3.3 mm | - | - | - |
| 1777716904 | 17.22° C | 90% | 1011.6 hPa | 3.3 mm | - | - | - |
| 1777716005 | 17.22° C | 90% | 1011.6 hPa | 3.3 mm | - | - | - |
| 1777715106 | 17.22° C | 90% | 1011.6 hPa | 3.3 mm | - | - | - |
| 1777714204 | 17.78° C | 89% | 1011.6 hPa | 3.05 mm | - | - | - |
| 1777713304 | 17.78° C | 89% | 1011.6 hPa | 3.05 mm | - | - | - |
* Rain since midnight (hover to see other rain measurements)
** Current wind speed in m/s (hover to see current wind gust speed)